Green Bay, Wisconsin
Current Conditions -  °F | °C
As of 3:53 PM on Monday 22 Dec 2014 (Local Time) from KGRB Reporting Station
Haze Haze  
Wind Chill: 30°   Ceiling: 1600
Heat Index: 36°   Visibility: 5mi
Dew Point: 32°   Wind: 8mph
Humidity: 86%   Direction: 100°E
Pressure: 29.79"   Gusts: NA
Location:  44.51°N, 88.01°W
Report Text: KGRB 222153Z 10007KT 5SM BR OVC016 02/00 A2979 RMK AO2 SLP097 T00220000
Loading
Personal Weather Stations






























Interactive Weather Map New forecast layout! Learn more

10-Day Weather Forecast

Advertisements
Track Severe Weather on mobile